createdAt,value
2019-03-21T00:01:24.365Z,4.97
2019-03-21T00:04:00.176Z,5.50
2019-03-21T00:06:30.415Z,5.80
2019-03-21T00:09:00.204Z,6.05
2019-03-21T00:12:05.826Z,6.90
2019-03-21T00:14:38.652Z,6.87
2019-03-21T00:17:17.406Z,4.95
2019-03-21T00:19:47.621Z,8.95
2019-03-21T00:22:17.405Z,4.00
2019-03-21T00:24:47.211Z,6.47
2019-03-21T00:27:17.786Z,5.78
2019-03-21T00:29:47.634Z,7.00
2019-03-21T00:32:17.645Z,12.70
2019-03-21T00:34:48.055Z,7.03
2019-03-21T00:37:20.565Z,9.90
2019-03-21T00:39:51.072Z,10.38
2019-03-21T00:42:20.861Z,6.15
2019-03-21T00:44:50.625Z,8.33
2019-03-21T00:47:21.012Z,6.95
2019-03-21T00:49:50.786Z,5.42
2019-03-21T00:52:20.572Z,7.08
2019-03-21T00:54:51.071Z,9.68
2019-03-21T00:57:20.853Z,8.18
2019-03-21T00:59:50.640Z,8.75
2019-03-21T01:02:20.913Z,7.00
2019-03-21T01:04:50.695Z,7.50
2019-03-21T01:07:20.471Z,8.50
2019-03-21T01:09:51.079Z,7.70
2019-03-21T01:12:20.855Z,7.45
2019-03-21T01:14:50.630Z,6.80
2019-03-21T01:17:21.451Z,6.95
2019-03-21T01:19:51.815Z,7.20
2019-03-21T01:22:21.587Z,6.80
2019-03-21T01:24:51.406Z,5.75
2019-03-21T01:27:21.844Z,6.00
2019-03-21T01:29:51.624Z,5.78
2019-03-21T01:32:21.447Z,8.35
2019-03-21T01:34:51.891Z,9.30
2019-03-21T01:37:21.666Z,9.68
2019-03-21T01:39:51.476Z,10.68
2019-03-21T01:42:22.249Z,8.58
2019-03-21T01:44:52.022Z,7.42
2019-03-21T01:47:21.846Z,6.33
2019-03-21T01:49:52.200Z,7.78
2019-03-21T01:52:21.985Z,10.40
2019-03-21T01:54:51.795Z,8.60
2019-03-21T01:57:22.190Z,7.42
2019-03-21T01:59:51.955Z,7.17
2019-03-21T02:02:21.764Z,8.13
2019-03-21T02:05:10.994Z,8.10
2019-03-21T02:07:40.790Z,6.70
2019-03-21T02:10:17.841Z,9.58
2019-03-21T02:12:47.699Z,7.42
2019-03-21T02:15:18.968Z,9.65
2019-03-21T02:17:50.179Z,7.37
2019-03-21T02:20:25.039Z,7.92
2019-03-21T02:22:55.138Z,7.75
2019-03-21T02:25:27.998Z,6.75
2019-03-21T02:27:57.794Z,7.95
2019-03-21T02:30:38.351Z,7.65
2019-03-21T02:33:13.756Z,5.95
2019-03-21T02:35:43.523Z,5.70
2019-03-21T02:38:13.308Z,7.92
2019-03-21T02:40:44.488Z,8.03
2019-03-21T02:43:14.350Z,6.00
2019-03-21T02:45:44.119Z,7.00
2019-03-21T02:48:13.956Z,6.40
2019-03-21T02:50:45.393Z,9.85
2019-03-21T02:53:15.524Z,7.00
2019-03-21T02:55:45.327Z,7.80
2019-03-21T02:58:15.557Z,9.60
2019-03-21T03:00:46.664Z,9.03
2019-03-21T03:03:17.496Z,9.70
2019-03-21T03:05:47.271Z,11.15
2019-03-21T03:08:17.054Z,12.50
2019-03-21T03:10:49.655Z,14.78
2019-03-21T03:13:19.415Z,16.67
2019-03-21T03:15:49.187Z,20.97
2019-03-21T03:18:24.575Z,17.62
2019-03-21T03:20:54.359Z,10.98
2019-03-21T03:23:24.135Z,11.90
2019-03-21T03:25:53.951Z,11.25
2019-03-21T03:28:26.281Z,11.53
2019-03-21T03:30:59.349Z,14.35
2019-03-21T03:33:29.237Z,12.80
2019-03-21T03:35:59.192Z,13.88
2019-03-21T03:38:29.003Z,14.50
2019-03-21T03:41:04.230Z,13.03
2019-03-21T03:43:34.027Z,14.07
2019-03-21T03:46:03.800Z,16.95
2019-03-21T03:48:33.570Z,16.93
2019-03-21T03:51:03.397Z,17.75
2019-03-21T03:53:33.874Z,20.10
2019-03-21T03:56:04.055Z,21.30
2019-03-21T03:58:43.124Z,15.93
2019-03-21T04:01:13.959Z,14.20
2019-03-21T04:03:43.795Z,10.90
2019-03-21T04:06:13.619Z,9.93
2019-03-21T04:08:43.383Z,7.83
2019-03-21T04:11:13.158Z,10.05
2019-03-21T04:13:43.687Z,8.33
2019-03-21T04:16:13.458Z,7.00
2019-03-21T04:18:45.944Z,8.58
2019-03-21T04:21:18.564Z,6.83
2019-03-21T04:23:48.335Z,6.95
2019-03-21T04:26:30.279Z,7.53
2019-03-21T04:29:00.067Z,8.55
2019-03-21T04:31:29.834Z,6.47
2019-03-21T04:34:02.568Z,6.03
2019-03-21T04:36:32.336Z,6.40
2019-03-21T04:39:02.108Z,5.67
2019-03-21T04:41:31.910Z,7.67
2019-03-21T04:44:02.005Z,6.05
2019-03-21T04:46:31.823Z,6.83
2019-03-21T04:49:01.865Z,7.53
2019-03-21T04:51:31.986Z,6.50
2019-03-21T04:54:02.072Z,7.58
2019-03-21T04:56:31.994Z,6.47
2019-03-21T04:59:02.066Z,7.20
2019-03-21T05:01:32.048Z,8.05
2019-03-21T05:04:02.119Z,7.50
2019-03-21T05:06:32.938Z,9.53
2019-03-21T05:09:03.241Z,7.83
2019-03-21T05:11:33.039Z,8.00
2019-03-21T05:14:03.811Z,7.67
2019-03-21T05:16:33.619Z,8.43
2019-03-21T05:19:04.262Z,8.03
2019-03-21T05:21:34.767Z,6.72
2019-03-21T05:24:04.540Z,7.20
2019-03-21T05:26:34.348Z,6.87
2019-03-21T05:29:04.960Z,5.58
2019-03-21T05:31:37.863Z,5.90
2019-03-21T05:34:07.743Z,5.90
2019-03-21T05:36:37.519Z,6.15
2019-03-21T05:39:09.797Z,5.50
2019-03-21T05:41:39.674Z,6.70
2019-03-21T05:44:23.651Z,6.17
2019-03-21T05:46:54.284Z,7.05
2019-03-21T05:49:24.060Z,8.60
2019-03-21T05:51:53.850Z,7.00
2019-03-21T05:54:24.236Z,4.42
2019-03-21T05:56:54.012Z,6.03
2019-03-21T05:59:24.122Z,5.03
2019-03-21T06:01:54.301Z,7.10
2019-03-21T06:04:24.067Z,5.65
2019-03-21T06:07:05.695Z,6.15
2019-03-21T06:09:35.476Z,6.22
2019-03-21T06:12:06.654Z,6.90
2019-03-21T06:14:42.211Z,5.67
2019-03-21T06:17:12.546Z,7.95
2019-03-21T06:19:56.678Z,6.03
2019-03-21T06:22:38.590Z,6.28
2019-03-21T06:25:11.441Z,5.90
2019-03-21T06:27:41.193Z,7.35
2019-03-21T06:30:11.075Z,8.65
2019-03-21T06:32:40.885Z,10.08
2019-03-21T06:35:13.619Z,5.47
2019-03-21T06:37:43.463Z,8.75
2019-03-21T06:40:13.663Z,7.30
2019-03-21T06:42:43.632Z,7.00
2019-03-21T06:45:14.214Z,8.03
2019-03-21T06:47:44.335Z,11.08
2019-03-21T06:50:14.119Z,10.40
2019-03-21T06:52:44.275Z,14.07
2019-03-21T06:55:14.404Z,10.82
2019-03-21T06:57:44.186Z,15.40
2019-03-21T07:00:14.528Z,13.62
2019-03-21T07:02:44.354Z,15.08
2019-03-21T07:05:14.135Z,14.18
2019-03-21T07:07:44.384Z,19.23
2019-03-21T07:10:15.043Z,19.10
2019-03-21T07:12:44.839Z,25.02
2019-03-21T07:15:14.618Z,23.50
2019-03-21T07:17:44.446Z,35.88
2019-03-21T07:20:16.779Z,25.82
2019-03-21T07:22:47.268Z,25.77
2019-03-21T07:25:17.283Z,26.82
2019-03-21T07:27:47.071Z,31.48
2019-03-21T07:30:17.112Z,24.23
2019-03-21T07:32:46.899Z,22.17
2019-03-21T07:35:16.995Z,24.92
2019-03-21T07:37:46.840Z,23.47
2019-03-21T07:40:16.736Z,22.80
2019-03-21T07:42:46.994Z,21.25
2019-03-21T07:45:17.433Z,25.68
2019-03-21T07:47:47.520Z,21.95
2019-03-21T07:50:17.831Z,23.50
2019-03-21T07:52:48.059Z,22.52
2019-03-21T07:55:17.918Z,23.62
2019-03-21T07:57:49.593Z,23.02
2019-03-21T08:00:20.324Z,25.75
2019-03-21T08:02:50.714Z,16.02
2019-03-21T08:05:24.930Z,16.37
2019-03-21T08:07:54.816Z,14.28
2019-03-21T08:10:24.601Z,22.10
2019-03-21T08:12:54.442Z,24.27
2019-03-21T08:15:24.243Z,20.37
2019-03-21T08:17:54.027Z,17.20
2019-03-21T08:20:26.261Z,17.30
2019-03-21T08:22:56.829Z,21.95
2019-03-21T08:25:26.836Z,17.65
2019-03-21T08:27:56.647Z,17.17
2019-03-21T08:30:29.463Z,16.67
2019-03-21T08:32:59.398Z,20.02
2019-03-21T08:36:07.434Z,23.92
2019-03-21T08:38:37.291Z,18.17
2019-03-21T08:41:07.044Z,19.77
2019-03-21T08:43:36.875Z,16.67
2019-03-21T08:46:06.661Z,20.15
2019-03-21T08:48:37.792Z,17.20
2019-03-21T08:51:08.839Z,21.30
2019-03-21T08:53:39.049Z,14.38
2019-03-21T08:56:09.364Z,10.82
2019-03-21T08:58:39.194Z,16.30
2019-03-21T09:01:08.950Z,18.00
2019-03-21T09:03:40.125Z,16.30
2019-03-21T09:06:09.952Z,14.40
2019-03-21T09:08:39.735Z,13.78
2019-03-21T09:11:09.600Z,21.07
2019-03-21T09:13:39.418Z,12.28
2019-03-21T09:16:10.865Z,14.07
2019-03-21T09:18:40.598Z,15.80
2019-03-21T09:21:19.268Z,22.48
2019-03-21T09:23:41.903Z,17.62
2019-03-21T09:26:11.684Z,13.18
2019-03-21T09:28:41.512Z,12.53
2019-03-21T09:31:11.293Z,19.90
2019-03-21T09:33:41.656Z,25.45
2019-03-21T09:36:11.551Z,15.20
2019-03-21T09:38:41.259Z,11.50
2019-03-21T09:41:11.816Z,14.03
2019-03-21T09:43:41.655Z,17.52
2019-03-21T09:46:11.443Z,21.90
2019-03-21T09:48:42.404Z,14.68
2019-03-21T09:51:30.174Z,19.40
2019-03-21T09:54:09.321Z,21.00
2019-03-21T09:56:33.208Z,21.57
2019-03-21T09:59:03.005Z,16.70
2019-03-21T10:01:32.816Z,16.97
2019-03-21T10:04:03.047Z,19.85
2019-03-21T10:06:32.862Z,16.67
2019-03-21T10:09:02.939Z,21.12
2019-03-21T10:11:33.049Z,10.65
2019-03-21T10:14:03.010Z,22.55
2019-03-21T10:16:33.042Z,18.50
2019-03-21T10:19:02.890Z,25.20
2019-03-21T10:21:42.785Z,17.62
2019-03-21T10:24:04.575Z,29.63
2019-03-21T10:26:34.355Z,26.15
2019-03-21T10:29:04.139Z,26.93
2019-03-21T10:31:33.963Z,21.07
2019-03-21T10:34:03.898Z,25.88
2019-03-21T10:36:33.677Z,28.65
2019-03-21T10:39:04.674Z,27.35
2019-03-21T10:41:34.454Z,28.32
2019-03-21T10:44:04.237Z,15.32
2019-03-21T10:46:34.048Z,27.07
2019-03-21T10:49:03.830Z,17.50
2019-03-21T10:51:33.607Z,14.07
2019-03-21T10:54:03.439Z,26.25
2019-03-21T10:56:33.230Z,21.85
2019-03-21T10:59:02.996Z,27.73
2019-03-21T11:01:32.843Z,18.40
2019-03-21T11:04:02.884Z,25.02
2019-03-21T11:06:33.091Z,20.92
2019-03-21T11:09:03.619Z,21.48
2019-03-21T11:11:33.396Z,24.07
2019-03-21T11:14:03.174Z,21.05
2019-03-21T11:16:32.987Z,20.15
2019-03-21T11:19:03.158Z,19.62
2019-03-21T11:21:32.941Z,19.20
2019-03-21T11:24:03.151Z,19.07
2019-03-21T11:26:33.133Z,25.12
2019-03-21T11:29:03.018Z,16.67
2019-03-21T11:31:33.199Z,23.55
2019-03-21T11:34:02.996Z,22.73
2019-03-21T11:36:38.285Z,15.90
2019-03-21T11:39:08.092Z,22.65
2019-03-21T11:41:38.265Z,19.05
2019-03-21T11:44:08.429Z,17.82
2019-03-21T11:46:38.395Z,18.57
2019-03-21T11:49:08.179Z,23.85
2019-03-21T11:51:38.298Z,25.08
2019-03-21T11:54:08.101Z,17.62
2019-03-21T11:56:37.901Z,17.20
2019-03-21T11:59:07.666Z,21.57
2019-03-21T12:01:37.687Z,15.08
2019-03-21T12:04:07.467Z,17.57
2019-03-21T12:06:37.252Z,18.07
2019-03-21T12:09:07.766Z,17.10
2019-03-21T12:11:37.547Z,20.02
2019-03-21T12:14:07.323Z,14.58
2019-03-21T12:16:37.143Z,20.12
2019-03-21T12:19:06.962Z,24.15
2019-03-21T12:21:36.751Z,15.38
2019-03-21T12:24:06.646Z,19.27
2019-03-21T12:26:37.241Z,19.02
2019-03-21T12:29:07.019Z,16.50
2019-03-21T12:31:36.912Z,10.03
2019-03-21T12:34:07.292Z,15.03
2019-03-21T12:36:37.074Z,16.67
2019-03-21T12:39:08.495Z,15.75
2019-03-21T12:41:38.275Z,18.40
2019-03-21T12:44:08.851Z,16.20
2019-03-21T12:46:38.663Z,21.52
2019-03-21T12:49:08.447Z,22.22
2019-03-21T12:51:38.801Z,18.25
2019-03-21T12:54:08.615Z,19.75
2019-03-21T12:56:38.397Z,27.00
2019-03-21T12:59:08.574Z,21.45
2019-03-21T13:01:38.434Z,25.40
2019-03-21T13:04:08.167Z,27.15
2019-03-21T13:06:37.946Z,26.07
2019-03-21T13:09:08.665Z,33.58
2019-03-21T13:11:38.450Z,26.05
2019-03-21T13:14:08.900Z,28.92
2019-03-21T13:16:38.736Z,19.80
2019-03-21T13:19:08.519Z,20.88
2019-03-21T13:21:38.819Z,25.25
2019-03-21T13:24:08.623Z,25.72
2019-03-21T13:26:38.842Z,16.57
2019-03-21T13:29:08.623Z,32.13
2019-03-21T13:31:38.817Z,23.85
2019-03-21T13:34:08.927Z,27.62
2019-03-21T13:36:38.705Z,28.25
2019-03-21T13:39:08.626Z,21.23
2019-03-21T13:41:38.865Z,21.00
2019-03-21T13:44:08.831Z,20.90
2019-03-21T13:46:38.640Z,24.02
2019-03-21T13:49:08.908Z,30.55
2019-03-21T13:51:38.684Z,24.52
2019-03-21T13:54:08.880Z,26.17
2019-03-21T13:56:38.846Z,21.73
2019-03-21T13:59:08.635Z,27.73
2019-03-21T14:01:38.454Z,19.98
2019-03-21T14:04:08.231Z,22.13
2019-03-21T14:06:38.012Z,30.12
2019-03-21T14:09:08.437Z,29.10
2019-03-21T14:11:38.215Z,25.05
2019-03-21T14:14:07.997Z,17.65
2019-03-21T14:16:37.809Z,17.37
2019-03-21T14:19:07.592Z,20.85
2019-03-21T14:21:37.450Z,27.95
2019-03-21T14:24:07.260Z,18.85
2019-03-21T14:26:37.108Z,24.18
2019-03-21T14:29:12.583Z,28.30
2019-03-21T14:31:38.943Z,24.30
2019-03-21T14:34:09.103Z,17.20
2019-03-21T14:36:38.890Z,23.30
2019-03-21T14:39:08.703Z,19.20
2019-03-21T14:41:38.950Z,23.98
2019-03-21T14:44:08.735Z,23.35
2019-03-21T14:46:38.548Z,19.87
2019-03-21T14:49:08.327Z,23.05
2019-03-21T14:51:38.106Z,18.48
2019-03-21T14:54:07.914Z,19.92
2019-03-21T14:56:37.864Z,28.32
2019-03-21T14:59:07.594Z,27.70
2019-03-21T15:01:37.483Z,14.90
2019-03-21T15:04:07.336Z,19.48
2019-03-21T15:06:37.536Z,22.95
2019-03-21T15:09:07.529Z,14.13
2019-03-21T15:11:37.423Z,15.43
2019-03-21T15:14:07.840Z,19.73
2019-03-21T15:16:37.655Z,22.05
2019-03-21T15:19:07.509Z,21.35
2019-03-21T15:21:37.874Z,23.47
2019-03-21T15:24:07.699Z,21.20
2019-03-21T15:26:38.243Z,21.85
2019-03-21T15:29:08.029Z,24.50
2019-03-21T15:31:37.854Z,19.92
2019-03-21T15:34:07.631Z,20.00
2019-03-21T15:36:37.900Z,19.42
2019-03-21T15:39:08.523Z,18.52
2019-03-21T15:41:38.801Z,22.98
2019-03-21T15:44:08.579Z,22.80
2019-03-21T15:46:38.468Z,12.65
2019-03-21T15:49:08.255Z,20.68
2019-03-21T15:51:38.031Z,18.92
2019-03-21T15:54:07.856Z,18.25
2019-03-21T15:56:37.638Z,18.98
2019-03-21T15:59:07.843Z,24.18
2019-03-21T16:01:37.654Z,30.43
2019-03-21T16:04:07.430Z,25.05
2019-03-21T16:06:37.742Z,27.52
2019-03-21T16:09:07.772Z,27.40
2019-03-21T16:11:37.627Z,31.50
2019-03-21T16:14:07.963Z,25.65
2019-03-21T16:16:37.778Z,28.42
2019-03-21T16:19:07.565Z,24.80
2019-03-21T16:21:37.898Z,32.58
2019-03-21T16:24:07.725Z,27.50
2019-03-21T16:26:37.579Z,28.77
2019-03-21T16:29:09.968Z,33.10
2019-03-21T16:31:38.803Z,32.98
2019-03-21T16:34:08.591Z,32.25
2019-03-21T16:36:38.387Z,35.08
2019-03-21T16:39:08.199Z,35.08
2019-03-21T16:41:37.991Z,28.05
2019-03-21T16:44:08.272Z,28.90
2019-03-21T16:46:38.086Z,26.85
2019-03-21T16:49:07.955Z,30.20
2019-03-21T16:51:38.320Z,27.95
2019-03-21T16:54:16.984Z,29.95
2019-03-21T16:56:39.562Z,33.18
2019-03-21T16:59:09.347Z,35.98
2019-03-21T17:01:39.171Z,31.12
2019-03-21T17:04:09.823Z,31.70
2019-03-21T17:06:39.601Z,29.87
2019-03-21T17:09:09.410Z,31.93
2019-03-21T17:11:39.567Z,35.25
2019-03-21T17:14:09.368Z,35.25
2019-03-21T17:16:39.176Z,35.95
2019-03-21T17:19:08.970Z,39.88
2019-03-21T17:21:38.753Z,39.03
2019-03-21T17:24:08.590Z,37.13
2019-03-21T17:26:38.427Z,32.75
2019-03-21T17:29:08.516Z,41.02
2019-03-21T17:31:38.334Z,31.27
2019-03-21T17:34:08.124Z,34.43
2019-03-21T17:36:38.446Z,31.40
2019-03-21T17:39:09.563Z,33.50
2019-03-21T17:41:39.963Z,26.50
2019-03-21T17:44:09.744Z,29.48
2019-03-21T17:46:39.562Z,28.55
2019-03-21T17:49:10.226Z,27.95
2019-03-21T17:51:40.179Z,33.75
2019-03-21T17:54:10.194Z,32.15
2019-03-21T17:56:40.293Z,26.12
2019-03-21T17:59:10.078Z,29.15
2019-03-21T18:01:39.904Z,29.37
2019-03-21T18:04:10.206Z,28.65
2019-03-21T18:06:39.996Z,25.20
2019-03-21T18:09:09.813Z,30.70
2019-03-21T18:11:40.274Z,20.85
2019-03-21T18:14:10.219Z,24.80
2019-03-21T18:16:40.238Z,29.27
2019-03-21T18:19:10.609Z,29.80
2019-03-21T18:21:40.392Z,24.92
2019-03-21T18:24:10.371Z,31.33
2019-03-21T18:26:40.448Z,30.17
2019-03-21T18:29:10.234Z,31.90
2019-03-21T18:31:40.370Z,34.83
2019-03-21T18:34:10.156Z,37.35
2019-03-21T18:36:40.636Z,31.93
2019-03-21T18:39:10.462Z,27.10
2019-03-21T18:41:40.238Z,36.00
2019-03-21T18:44:10.490Z,34.50
2019-03-21T18:46:40.322Z,33.78
2019-03-21T18:49:10.103Z,31.87
2019-03-21T18:51:40.603Z,35.98
2019-03-21T18:54:10.423Z,33.63
2019-03-21T18:56:40.216Z,41.80
2019-03-21T18:59:10.691Z,30.97
2019-03-21T19:01:40.666Z,39.65
2019-03-21T19:04:10.516Z,36.00
2019-03-21T19:06:42.152Z,24.47
2019-03-21T19:09:12.025Z,42.03
2019-03-21T19:11:42.081Z,40.90
2019-03-21T19:14:12.351Z,41.08
2019-03-21T19:16:42.175Z,34.18
2019-03-21T19:19:12.130Z,39.38
2019-03-21T19:21:42.679Z,39.58
2019-03-21T19:24:12.523Z,44.48
2019-03-21T19:26:42.619Z,46.53
2019-03-21T19:29:14.936Z,43.30
2019-03-21T19:31:44.539Z,38.17
2019-03-21T19:34:14.379Z,39.30
2019-03-21T19:36:44.163Z,42.00
2019-03-21T19:39:14.588Z,37.13
2019-03-21T19:41:44.949Z,38.00
2019-03-21T19:44:14.919Z,39.60
2019-03-21T19:46:44.747Z,39.13
2019-03-21T19:49:15.302Z,40.15
2019-03-21T19:51:45.092Z,35.80
2019-03-21T19:54:14.920Z,34.08
2019-03-21T19:56:45.179Z,35.73
2019-03-21T19:59:14.991Z,36.05
2019-03-21T20:01:44.814Z,37.15
2019-03-21T20:04:15.069Z,32.78
2019-03-21T20:06:44.855Z,37.90
2019-03-21T20:09:14.671Z,31.37
2019-03-21T20:11:44.462Z,48.23
2019-03-21T20:14:14.244Z,35.95
2019-03-21T20:16:44.831Z,32.17
2019-03-21T20:19:14.617Z,29.52
2019-03-21T20:21:48.212Z,33.15
2019-03-21T20:24:15.854Z,30.48
2019-03-21T20:26:45.654Z,33.45
2019-03-21T20:29:15.895Z,32.50
2019-03-21T20:31:46.519Z,30.37
2019-03-21T20:34:16.311Z,38.35
2019-03-21T20:36:46.112Z,44.55
2019-03-21T20:39:15.939Z,41.68
2019-03-21T20:41:48.913Z,35.50
2019-03-21T20:44:18.699Z,42.90
2019-03-21T20:46:48.514Z,41.23
2019-03-21T20:49:18.306Z,33.73
2019-03-21T20:51:48.223Z,42.75
2019-03-21T20:54:18.526Z,39.45
2019-03-21T20:56:48.312Z,39.08
2019-03-21T20:59:18.251Z,36.70
2019-03-21T21:01:48.255Z,32.03
2019-03-21T21:04:18.438Z,33.23
2019-03-21T21:06:48.387Z,36.60
2019-03-21T21:09:18.582Z,43.92
2019-03-21T21:11:48.364Z,42.20
2019-03-21T21:14:18.318Z,39.80
2019-03-21T21:16:48.566Z,38.70
2019-03-21T21:19:18.352Z,47.73
2019-03-21T21:21:48.321Z,39.18
2019-03-21T21:24:18.512Z,41.00
2019-03-21T21:26:48.371Z,35.63
2019-03-21T21:29:18.342Z,40.73
2019-03-21T21:31:51.006Z,44.13
2019-03-21T21:34:20.790Z,43.92
2019-03-21T21:36:50.586Z,47.23
2019-03-21T21:39:21.184Z,37.60
2019-03-21T21:41:50.985Z,29.60
2019-03-21T21:44:21.092Z,44.18
2019-03-21T21:46:51.204Z,30.97
2019-03-21T21:49:20.990Z,38.55
2019-03-21T21:51:50.775Z,33.42
2019-03-21T21:54:21.473Z,35.78
2019-03-21T21:56:51.250Z,35.48
2019-03-21T21:59:21.030Z,30.85
2019-03-21T22:01:50.859Z,36.08
2019-03-21T22:04:20.832Z,34.43
2019-03-21T22:06:50.603Z,36.08
2019-03-21T22:09:20.433Z,27.55
2019-03-21T22:11:50.216Z,43.17
2019-03-21T22:14:19.990Z,25.10
2019-03-21T22:16:50.008Z,42.62
2019-03-21T22:19:20.302Z,33.80
2019-03-21T22:21:50.080Z,33.02
2019-03-21T22:24:20.370Z,35.90
2019-03-21T22:26:50.163Z,30.72
2019-03-21T22:29:20.293Z,29.77
2019-03-21T22:31:50.107Z,37.67
2019-03-21T22:34:21.913Z,37.55
2019-03-21T22:36:51.699Z,43.60
2019-03-21T22:39:21.575Z,43.98
2019-03-21T22:41:52.134Z,38.80
2019-03-21T22:44:21.908Z,33.25
2019-03-21T22:46:51.723Z,31.05
2019-03-21T22:49:21.505Z,29.40
2019-03-21T22:51:51.283Z,35.98
2019-03-21T22:54:21.406Z,37.25
2019-03-21T22:56:51.250Z,36.98
2019-03-21T22:59:21.403Z,37.10
2019-03-21T23:01:51.527Z,35.52
2019-03-21T23:04:21.322Z,40.23
2019-03-21T23:06:51.463Z,32.60
2019-03-21T23:09:21.362Z,39.98
2019-03-21T23:11:51.423Z,42.23
2019-03-21T23:14:21.415Z,33.45
2019-03-21T23:16:51.475Z,43.23
2019-03-21T23:19:21.455Z,32.80
2019-03-21T23:21:51.471Z,36.50
2019-03-21T23:24:21.445Z,32.40
2019-03-21T23:26:53.075Z,38.42
2019-03-21T23:29:22.911Z,39.48
2019-03-21T23:31:53.316Z,42.40
2019-03-21T23:34:23.103Z,35.75
2019-03-21T23:36:52.904Z,33.53
2019-03-21T23:39:22.715Z,29.80
2019-03-21T23:41:52.505Z,26.93
2019-03-21T23:44:22.287Z,37.58
2019-03-21T23:46:52.510Z,36.13
2019-03-21T23:49:22.310Z,36.42
2019-03-21T23:51:52.398Z,33.38
2019-03-21T23:54:22.414Z,32.15
2019-03-21T23:57:03.840Z,29.15
2019-03-21T23:59:23.839Z,30.08
